createdAt,value
2019-05-26T00:01:39.603Z,101736.39
2019-05-26T00:06:41.569Z,101738.78
2019-05-26T00:11:43.578Z,101744.17
2019-05-26T00:16:45.677Z,101740.17
2019-05-26T00:21:48.859Z,101730.88
2019-05-26T00:26:50.835Z,101732.34
2019-05-26T00:31:52.640Z,101728.45
2019-05-26T00:36:54.563Z,101716.67
2019-05-26T00:41:56.400Z,101707.87
2019-05-26T00:46:58.465Z,101707.93
2019-05-26T00:52:02.824Z,101701.37
2019-05-26T00:57:07.518Z,101701.10
2019-05-26T01:02:09.340Z,101697.24
2019-05-26T01:07:11.321Z,101688.53
2019-05-26T01:12:16.170Z,101676.84
2019-05-26T01:17:19.529Z,101674.26
2019-05-26T01:22:21.375Z,101660.17
2019-05-26T01:27:23.341Z,101655.81
2019-05-26T01:32:25.272Z,101650.80
2019-05-26T01:37:31.525Z,101653.34
2019-05-26T01:42:33.333Z,101654.41
2019-05-26T01:47:37.017Z,101658.45
2019-05-26T01:52:40.617Z,101665.41
2019-05-26T01:57:42.452Z,101652.29
2019-05-26T02:02:47.388Z,101652.45
2019-05-26T02:07:49.483Z,101643.03
2019-05-26T02:12:52.473Z,101639.61
2019-05-26T02:17:54.339Z,101633.91
2019-05-26T02:22:56.148Z,101622.57
2019-05-26T02:27:58.070Z,101617.27
2019-05-26T02:33:00.042Z,101609.77
2019-05-26T02:38:01.847Z,101612.73
2019-05-26T02:43:03.730Z,101604.55
2019-05-26T02:48:05.711Z,101601.12
2019-05-26T02:53:07.578Z,101594.15
2019-05-26T02:58:09.375Z,101588.59
2019-05-26T03:03:14.265Z,101577.06
2019-05-26T03:08:16.348Z,101580.86
2019-05-26T03:13:18.353Z,101585.95
2019-05-26T03:18:20.139Z,101582.78
2019-05-26T03:23:22.252Z,101577.30
2019-05-26T03:28:24.073Z,101570.38
2019-05-26T03:33:26.108Z,101563.25
2019-05-26T03:38:27.994Z,101562.22
2019-05-26T03:43:29.781Z,101557.32
2019-05-26T03:48:31.538Z,101556.50
2019-05-26T03:53:33.346Z,101558.28
2019-05-26T03:58:35.148Z,101554.16
2019-05-26T04:03:36.996Z,101551.41
2019-05-26T04:08:38.909Z,101551.64
2019-05-26T04:13:40.992Z,101550.78
2019-05-26T04:18:42.798Z,101544.34
2019-05-26T04:23:44.863Z,101544.16
2019-05-26T04:28:46.700Z,101543.84
2019-05-26T04:33:48.678Z,101542.20
2019-05-26T04:38:50.481Z,101533.51
2019-05-26T04:43:52.478Z,101523.09
2019-05-26T04:48:54.311Z,101520.66
2019-05-26T04:53:55.908Z,101524.33
2019-05-26T04:58:58.114Z,101521.55
2019-05-26T05:03:59.828Z,101511.09
2019-05-26T05:09:01.738Z,101510.23
2019-05-26T05:14:03.940Z,101513.50
2019-05-26T05:19:07.988Z,101499.29
2019-05-26T05:24:09.941Z,101493.91
2019-05-26T05:29:11.833Z,101489.16
2019-05-26T05:34:13.779Z,101489.07
2019-05-26T05:39:15.473Z,101495.11
2019-05-26T05:44:17.329Z,101502.08
2019-05-26T05:49:19.180Z,101495.27
2019-05-26T05:54:21.110Z,101488.98
2019-05-26T05:59:22.966Z,101485.50
2019-05-26T06:04:26.623Z,101487.31
2019-05-26T06:09:28.439Z,101479.27
2019-05-26T06:14:30.514Z,101478.41
2019-05-26T06:19:32.320Z,101478.41
2019-05-26T06:24:34.190Z,101475.66
2019-05-26T06:29:36.045Z,101480.84
2019-05-26T06:34:38.181Z,101477.50
2019-05-26T06:39:42.708Z,101480.89
2019-05-26T06:44:53.655Z,101482.96
2019-05-26T06:49:51.373Z,101482.33
2019-05-26T06:54:57.919Z,101470.51
2019-05-26T06:59:59.776Z,101479.80
2019-05-26T07:05:01.840Z,101474.27
2019-05-26T07:10:04.150Z,101469.31
2019-05-26T07:15:06.650Z,101475.06
2019-05-26T07:20:08.768Z,101486.77
2019-05-26T07:25:10.876Z,101476.11
2019-05-26T07:30:12.829Z,101473.20
2019-05-26T07:35:14.914Z,101478.36
2019-05-26T07:40:19.069Z,101477.26
2019-05-26T07:45:20.951Z,101481.33
2019-05-26T07:50:22.750Z,101467.17
2019-05-26T07:55:24.834Z,101470.86
2019-05-26T08:00:30.148Z,101468.22
2019-05-26T08:05:32.248Z,101461.84
2019-05-26T08:10:35.477Z,101454.06
2019-05-26T08:15:40.372Z,101449.97
2019-05-26T08:20:44.819Z,101454.12
2019-05-26T08:25:46.652Z,101468.09
2019-05-26T08:30:48.455Z,101464.37
2019-05-26T08:35:53.000Z,101466.30
2019-05-26T08:40:54.803Z,101457.82
2019-05-26T08:46:00.599Z,101454.58
2019-05-26T08:51:02.459Z,101447.26
2019-05-26T08:56:07.332Z,101450.95
2019-05-26T09:01:09.123Z,101455.75
2019-05-26T09:06:16.160Z,101448.21
2019-05-26T09:11:17.993Z,101444.78
2019-05-26T09:16:22.903Z,101437.27
2019-05-26T09:21:24.714Z,101435.28
2019-05-26T09:26:26.683Z,101435.92
2019-05-26T09:31:28.476Z,101437.28
2019-05-26T09:36:30.175Z,101437.37
2019-05-26T09:41:31.984Z,101434.27
2019-05-26T09:46:38.741Z,101438.54
2019-05-26T09:51:43.689Z,101436.91
2019-05-26T09:56:48.529Z,101438.72
2019-05-26T10:01:50.328Z,101433.05
2019-05-26T10:06:52.139Z,101431.91
2019-05-26T10:11:58.836Z,101431.56
2019-05-26T10:17:03.848Z,101431.75
2019-05-26T10:22:05.643Z,101437.50
2019-05-26T10:27:07.679Z,101425.75
2019-05-26T10:32:11.632Z,101423.37
2019-05-26T10:37:15.227Z,101418.25
2019-05-26T10:42:17.044Z,101414.28
2019-05-26T10:47:21.407Z,101412.23
2019-05-26T10:52:23.199Z,101406.70
2019-05-26T10:57:25.105Z,101407.61
2019-05-26T11:02:26.892Z,101390.73
2019-05-26T11:07:28.756Z,101385.64
2019-05-26T11:12:36.176Z,101387.84
2019-05-26T11:17:39.225Z,101382.63
2019-05-26T11:22:41.041Z,101386.06
2019-05-26T11:27:45.967Z,101379.05
2019-05-26T11:32:49.654Z,101385.14
2019-05-26T11:37:51.705Z,101377.48
2019-05-26T11:42:56.047Z,101376.37
2019-05-26T11:47:59.270Z,101378.76
2019-05-26T11:53:03.913Z,101361.39
2019-05-26T11:58:06.042Z,101347.87
2019-05-26T12:03:07.854Z,101347.40
2019-05-26T12:08:09.857Z,101344.34
2019-05-26T12:13:12.878Z,101344.18
2019-05-26T12:18:14.958Z,101346.43
2019-05-26T12:23:16.720Z,101331.55
2019-05-26T12:28:20.614Z,101327.96
2019-05-26T12:33:24.813Z,101330.95
2019-05-26T12:38:28.950Z,101326.77
2019-05-26T12:43:32.228Z,101324.98
2019-05-26T12:48:36.341Z,101320.14
2019-05-26T12:53:38.229Z,101312.08
2019-05-26T12:58:40.035Z,101313.32
2019-05-26T13:03:41.780Z,101315.35
2019-05-26T13:08:47.766Z,101300.69
2019-05-26T13:13:51.691Z,101311.31
2019-05-26T13:18:53.542Z,101297.92
2019-05-26T13:23:55.389Z,101291.69
2019-05-26T13:28:58.941Z,101300.92
2019-05-26T13:34:00.806Z,101283.83
2019-05-26T13:39:04.605Z,101278.72
2019-05-26T13:44:06.695Z,101287.97
2019-05-26T13:49:08.595Z,101278.85
2019-05-26T13:54:10.636Z,101279.47
2019-05-26T13:59:12.452Z,101286.55
2019-05-26T14:04:14.254Z,101276.33
2019-05-26T14:09:18.948Z,101270.61
2019-05-26T14:14:21.035Z,101260.33
2019-05-26T14:19:26.088Z,101270.89
2019-05-26T14:24:28.006Z,101267.22
2019-05-26T14:29:29.930Z,101256.27
2019-05-26T14:34:32.023Z,101258.95
2019-05-26T14:39:33.836Z,101246.77
2019-05-26T14:44:35.685Z,101247.27
2019-05-26T14:49:37.502Z,101236.03
2019-05-26T14:54:41.058Z,101241.73
2019-05-26T14:59:43.232Z,101231.80
2019-05-26T15:04:47.912Z,101231.73
2019-05-26T15:09:52.374Z,101223.98
2019-05-26T15:14:54.370Z,101215.13
2019-05-26T15:19:58.308Z,101213.30
2019-05-26T15:25:04.142Z,101206.70
2019-05-26T15:30:08.396Z,101201.50
2019-05-26T15:35:11.150Z,101185.31
2019-05-26T15:40:13.154Z,101196.19
2019-05-26T15:45:17.110Z,101193.67
2019-05-26T15:50:19.020Z,101181.69
2019-05-26T15:55:20.946Z,101185.84
2019-05-26T16:00:22.948Z,101177.25
2019-05-26T16:05:27.564Z,101158.64
2019-05-26T16:10:29.410Z,101169.42
2019-05-26T16:15:31.377Z,101164.86
2019-05-26T16:20:33.201Z,101171.20
2019-05-26T16:25:35.231Z,101152.06
2019-05-26T16:30:37.065Z,101152.59
2019-05-26T16:35:38.957Z,101146.59
2019-05-26T16:40:41.103Z,101136.92
2019-05-26T16:45:55.682Z,101131.55
2019-05-26T16:50:46.913Z,101123.81
2019-05-26T16:55:48.976Z,101117.45
2019-05-26T17:00:50.798Z,101122.66
2019-05-26T17:06:06.977Z,101129.97
2019-05-26T17:10:56.356Z,101131.82
2019-05-26T17:16:00.838Z,101117.59
2019-05-26T17:21:02.681Z,101113.77
2019-05-26T17:26:04.567Z,101109.40
2019-05-26T17:31:06.378Z,101098.52
2019-05-26T17:36:10.307Z,101096.36
2019-05-26T17:41:13.429Z,101095.63
2019-05-26T17:46:18.310Z,101085.51
2019-05-26T17:51:20.008Z,101094.09
2019-05-26T17:56:21.952Z,101101.59
2019-05-26T18:01:28.454Z,101100.44
2019-05-26T18:06:30.533Z,101091.96
2019-05-26T18:11:32.328Z,101102.92
2019-05-26T18:16:34.115Z,101096.91
2019-05-26T18:21:35.934Z,101087.06
2019-05-26T18:26:39.060Z,101076.35
2019-05-26T18:31:40.862Z,101073.94
2019-05-26T18:36:42.667Z,101067.74
2019-05-26T18:41:44.465Z,101063.28
2019-05-26T18:46:47.794Z,101063.03
2019-05-26T18:51:51.077Z,101066.58
2019-05-26T18:56:53.186Z,101073.66
2019-05-26T19:01:55.082Z,101077.64
2019-05-26T19:06:57.079Z,101070.31
2019-05-26T19:11:59.062Z,101064.64
2019-05-26T19:17:01.070Z,101067.34
2019-05-26T19:22:02.884Z,101068.41
2019-05-26T19:27:05.977Z,101065.20
2019-05-26T19:32:09.221Z,101074.83
2019-05-26T19:37:12.313Z,101074.17
2019-05-26T19:42:14.302Z,101069.39
2019-05-26T19:47:16.290Z,101071.94
2019-05-26T19:52:18.118Z,101064.70
2019-05-26T19:57:22.213Z,101056.88
2019-05-26T20:02:24.015Z,101050.47
2019-05-26T20:07:25.909Z,101059.75
2019-05-26T20:12:27.804Z,101070.27
2019-05-26T20:17:29.806Z,101068.32
2019-05-26T20:22:32.874Z,101073.18
2019-05-26T20:27:35.010Z,101078.31
2019-05-26T20:32:38.226Z,101084.64
2019-05-26T20:37:40.108Z,101094.89
2019-05-26T20:42:48.198Z,101078.00
2019-05-26T20:47:50.176Z,101074.83
2019-05-26T20:52:52.057Z,101068.63
2019-05-26T20:57:56.647Z,101064.10
2019-05-26T21:03:01.421Z,101065.80
2019-05-26T21:08:04.335Z,101070.66
2019-05-26T21:13:06.163Z,101429.25
2019-05-26T21:18:08.202Z,101071.02
2019-05-26T21:23:10.006Z,101059.08
2019-05-26T21:28:11.879Z,101048.61
2019-05-26T21:33:15.282Z,101051.35
2019-05-26T21:38:17.164Z,101049.07
2019-05-26T21:43:21.855Z,101048.17
2019-05-26T21:48:25.660Z,101052.79
2019-05-26T21:53:27.560Z,101059.38
2019-05-26T21:58:35.925Z,101049.54
2019-05-26T22:03:38.057Z,101069.19
2019-05-26T22:08:39.893Z,101093.52
2019-05-26T22:13:41.530Z,101090.92
2019-05-26T22:18:43.337Z,101076.35
2019-05-26T22:23:45.162Z,101080.06
2019-05-26T22:28:46.968Z,101070.78
2019-05-26T22:33:48.777Z,101064.55
2019-05-26T22:38:52.595Z,101064.56
2019-05-26T22:43:54.494Z,101081.41
2019-05-26T22:48:56.291Z,101084.14
2019-05-26T22:53:58.172Z,101075.77
2019-05-26T22:58:59.942Z,101070.13
2019-05-26T23:04:03.298Z,101067.14
2019-05-26T23:09:05.953Z,101054.75
2019-05-26T23:14:07.716Z,101055.45
2019-05-26T23:19:18.705Z,101054.98
2019-05-26T23:24:13.498Z,101051.02
2019-05-26T23:29:15.274Z,101049.95
2019-05-26T23:34:16.967Z,101052.75
2019-05-26T23:39:18.763Z,101045.34
2019-05-26T23:44:21.957Z,101039.40
2019-05-26T23:49:23.787Z,101035.28
2019-05-26T23:54:27.951Z,101043.58
2019-05-26T23:59:29.656Z,101048.76
